createdAt,value
2018-05-23T00:00:22.579Z,15
2018-05-23T00:01:24.574Z,15
2018-05-23T00:02:26.552Z,15
2018-05-23T00:03:28.552Z,15
2018-05-23T00:04:30.552Z,15
2018-05-23T00:05:32.548Z,15
2018-05-23T00:06:34.547Z,15
2018-05-23T00:07:37.210Z,15
2018-05-23T00:08:39.215Z,15.1
2018-05-23T00:09:41.204Z,15
2018-05-23T00:10:43.197Z,14.9
2018-05-23T00:11:45.205Z,14.9
2018-05-23T00:12:47.199Z,14.9
2018-05-23T00:13:49.204Z,14.9
2018-05-23T00:14:51.195Z,14.9
2018-05-23T00:15:53.191Z,14.9
2018-05-23T00:16:55.189Z,14.9
2018-05-23T00:17:57.179Z,14.9
2018-05-23T00:18:59.181Z,14.9
2018-05-23T00:20:01.175Z,14.9
2018-05-23T00:21:03.564Z,14.9
2018-05-23T00:22:05.562Z,14.9
2018-05-23T00:23:07.564Z,14.9
2018-05-23T00:24:09.562Z,14.8
2018-05-23T00:25:11.834Z,14.8
2018-05-23T00:26:13.829Z,14.7
2018-05-23T00:27:16.210Z,14.8
2018-05-23T00:28:18.197Z,14.8
2018-05-23T00:29:20.202Z,14.8
2018-05-23T00:30:22.202Z,14.8
2018-05-23T00:31:24.187Z,14.8
2018-05-23T00:32:26.577Z,14.7
2018-05-23T00:33:28.576Z,14.7
2018-05-23T00:34:30.557Z,14.7
2018-05-23T00:35:32.566Z,14.7
2018-05-23T00:36:34.568Z,14.7
2018-05-23T00:37:36.922Z,14.7
2018-05-23T00:38:38.918Z,14.7
2018-05-23T00:39:40.907Z,14.7
2018-05-23T00:40:42.918Z,14.7
2018-05-23T00:41:44.912Z,14.6
2018-05-23T00:42:46.904Z,14.7
2018-05-23T00:43:49.295Z,14.6
2018-05-23T00:44:51.278Z,14.6
2018-05-23T00:45:53.275Z,14.6
2018-05-23T00:46:55.554Z,14.6
2018-05-23T00:47:57.554Z,14.6
2018-05-23T00:48:59.555Z,14.6
2018-05-23T00:50:01.542Z,14.6
2018-05-23T00:51:03.549Z,14.5
2018-05-23T00:52:05.545Z,14.5
2018-05-23T00:53:07.557Z,14.5
2018-05-23T00:54:09.543Z,14.5
2018-05-23T00:55:11.536Z,14.4
2018-05-23T00:56:13.816Z,14.4
2018-05-23T00:57:15.825Z,14.4
2018-05-23T00:58:18.104Z,14.4
2018-05-23T00:59:20.107Z,14.4
2018-05-23T01:00:22.091Z,14.4
2018-05-23T01:01:24.101Z,14.4
2018-05-23T01:02:26.089Z,14.3
2018-05-23T01:03:28.086Z,14.4
2018-05-23T01:04:30.093Z,14.4
2018-05-23T01:05:32.089Z,14.4
2018-05-23T01:06:34.069Z,14.4
2018-05-23T01:07:36.068Z,14.4
2018-05-23T01:08:38.069Z,14.4
2018-05-23T01:09:40.062Z,14.4
2018-05-23T01:10:42.056Z,14.4
2018-05-23T01:11:44.435Z,14.3
2018-05-23T01:12:46.733Z,14.3
2018-05-23T01:13:49.110Z,14.4
2018-05-23T01:14:51.488Z,14.3
2018-05-23T01:15:53.491Z,14.4
2018-05-23T01:16:55.480Z,14.4
2018-05-23T01:17:57.479Z,14.3
2018-05-23T01:18:59.762Z,14.3
2018-05-23T01:20:02.049Z,14.3
2018-05-23T01:21:04.040Z,14.3
2018-05-23T01:22:06.028Z,14.3
2018-05-23T01:23:08.031Z,14.3
2018-05-23T01:24:10.020Z,14.3
2018-05-23T01:25:12.017Z,14.3
2018-05-23T01:26:14.021Z,14.3
2018-05-23T01:27:16.296Z,14.3
2018-05-23T01:28:18.309Z,14.3
2018-05-23T01:29:20.306Z,14.3
2018-05-23T01:30:22.289Z,14.3
2018-05-23T01:31:24.278Z,14.3
2018-05-23T01:32:26.287Z,14.3
2018-05-23T01:33:28.285Z,14.3
2018-05-23T01:34:30.658Z,14.4
2018-05-23T01:35:32.658Z,14.4
2018-05-23T01:36:34.946Z,14.4
2018-05-23T01:37:37.237Z,14.4
2018-05-23T01:38:39.228Z,14.4
2018-05-23T01:39:41.239Z,14.4
2018-05-23T01:40:43.235Z,14.4
2018-05-23T01:41:45.228Z,14.3
2018-05-23T01:42:47.230Z,14.3
2018-05-23T01:43:50.172Z,14.3
2018-05-23T01:44:52.548Z,14.3
2018-05-23T01:45:54.844Z,14.3
2018-05-23T01:46:56.821Z,14.3
2018-05-23T01:47:59.215Z,14.2
2018-05-23T01:49:01.203Z,14.2
2018-05-23T01:50:03.791Z,14.1
2018-05-23T01:51:06.094Z,14.1
2018-05-23T01:52:08.090Z,14.1
2018-05-23T01:53:10.081Z,14.1
2018-05-23T01:54:12.084Z,14.1
2018-05-23T01:55:14.083Z,14
2018-05-23T01:56:16.399Z,14
2018-05-23T01:57:18.381Z,14
2018-05-23T01:58:20.386Z,14
2018-05-23T01:59:22.380Z,13.9
2018-05-23T02:00:24.373Z,13.9
2018-05-23T02:01:26.365Z,13.9
2018-05-23T02:02:28.364Z,13.9
2018-05-23T02:03:30.352Z,13.9
2018-05-23T02:04:33.436Z,13.8
2018-05-23T02:05:35.427Z,13.8
2018-05-23T02:06:37.416Z,13.7
2018-05-23T02:07:39.810Z,13.8
2018-05-23T02:08:41.808Z,13.7
2018-05-23T02:09:44.196Z,13.6
2018-05-23T02:10:46.479Z,13.7
2018-05-23T02:11:49.136Z,13.6
2018-05-23T02:12:51.150Z,13.6
2018-05-23T02:13:53.416Z,13.6
2018-05-23T02:14:56.090Z,13.6
2018-05-23T02:15:58.092Z,13.5
2018-05-23T02:17:00.088Z,13.5
2018-05-23T02:18:02.085Z,13.4
2018-05-23T02:19:04.357Z,13.4
2018-05-23T02:20:06.361Z,13.4
2018-05-23T02:21:08.921Z,13.4
2018-05-23T02:22:10.901Z,13.4
2018-05-23T02:23:12.913Z,13.4
2018-05-23T02:24:15.569Z,13.4
2018-05-23T02:25:18.132Z,13.3
2018-05-23T02:26:20.133Z,13.3
2018-05-23T02:27:22.142Z,13.3
2018-05-23T02:28:24.139Z,13.3
2018-05-23T02:29:26.116Z,13.4
2018-05-23T02:30:28.115Z,13.4
2018-05-23T02:31:30.110Z,13.4
2018-05-23T02:32:32.109Z,13.4
2018-05-23T02:33:34.393Z,13.4
2018-05-23T02:34:36.389Z,13.4
2018-05-23T02:35:38.777Z,13.4
2018-05-23T02:36:41.037Z,13.4
2018-05-23T02:37:43.039Z,13.3
2018-05-23T02:38:45.719Z,13.3
2018-05-23T02:39:47.708Z,13.2
2018-05-23T02:40:50.266Z,13.1
2018-05-23T02:41:52.573Z,13.2
2018-05-23T02:42:54.565Z,13.2
2018-05-23T02:43:56.566Z,13.2
2018-05-23T02:44:58.569Z,13.2
2018-05-23T02:46:00.853Z,13.1
2018-05-23T02:47:02.916Z,13.1
2018-05-23T02:48:05.723Z,13.2
2018-05-23T02:49:08.000Z,13.2
2018-05-23T02:50:09.987Z,13.2
2018-05-23T02:51:12.641Z,13.2
2018-05-23T02:52:14.936Z,13.2
2018-05-23T02:53:17.313Z,13.2
2018-05-23T02:54:19.296Z,13.2
2018-05-23T02:55:21.591Z,13.2
2018-05-23T02:56:23.860Z,13.2
2018-05-23T02:57:26.707Z,13.2
2018-05-23T02:58:29.081Z,13.1
2018-05-23T02:59:31.373Z,13.1
2018-05-23T03:00:33.358Z,13.1
2018-05-23T03:01:35.348Z,13.1
2018-05-23T03:02:37.350Z,13.1
2018-05-23T03:03:39.642Z,13.1
2018-05-23T03:04:41.639Z,13.1
2018-05-23T03:05:43.654Z,13
2018-05-23T03:06:46.314Z,13.1
2018-05-23T03:07:48.309Z,13
2018-05-23T03:08:50.581Z,13
2018-05-23T03:09:52.572Z,12.9
2018-05-23T03:10:54.851Z,12.9
2018-05-23T03:11:56.853Z,12.9
2018-05-23T03:12:59.127Z,12.8
2018-05-23T03:14:01.124Z,12.9
2018-05-23T03:15:03.113Z,12.9
2018-05-23T03:16:05.114Z,12.8
2018-05-23T03:17:07.410Z,12.8
2018-05-23T03:18:09.418Z,12.8
2018-05-23T03:19:11.712Z,12.8
2018-05-23T03:20:13.706Z,12.8
2018-05-23T03:21:15.986Z,12.9
2018-05-23T03:22:17.977Z,12.9
2018-05-23T03:23:19.973Z,12.9
2018-05-23T03:24:21.968Z,12.9
2018-05-23T03:25:23.959Z,13
2018-05-23T03:26:26.238Z,12.9
2018-05-23T03:27:28.608Z,12.9
2018-05-23T03:28:30.611Z,12.8
2018-05-23T03:29:32.615Z,12.9
2018-05-23T03:30:34.882Z,12.9
2018-05-23T03:31:37.177Z,12.9
2018-05-23T03:32:39.756Z,12.9
2018-05-23T03:33:41.757Z,12.9
2018-05-23T03:34:43.755Z,12.9
2018-05-23T03:35:46.030Z,12.9
2018-05-23T03:36:48.041Z,12.9
2018-05-23T03:37:50.303Z,12.9
2018-05-23T03:38:52.299Z,12.9
2018-05-23T03:39:54.295Z,12.8
2018-05-23T03:40:56.292Z,12.8
2018-05-23T03:41:58.293Z,12.9
2018-05-23T03:43:00.308Z,12.9
2018-05-23T03:44:02.292Z,12.9
2018-05-23T03:45:04.948Z,12.9
2018-05-23T03:46:06.950Z,12.9
2018-05-23T03:47:08.936Z,12.9
2018-05-23T03:48:11.322Z,12.9
2018-05-23T03:49:13.325Z,12.9
2018-05-23T03:50:15.305Z,12.9
2018-05-23T03:51:17.307Z,12.9
2018-05-23T03:52:19.298Z,13
2018-05-23T03:53:21.304Z,13
2018-05-23T03:54:23.295Z,13
2018-05-23T03:55:25.667Z,12.9
2018-05-23T03:56:27.602Z,12.9
2018-05-23T03:57:29.591Z,12.9
2018-05-23T03:58:31.587Z,12.9
2018-05-23T03:59:33.973Z,12.8
2018-05-23T04:00:36.258Z,12.9
2018-05-23T04:01:38.254Z,12.9
2018-05-23T04:02:40.241Z,12.9
2018-05-23T04:03:42.250Z,13
2018-05-23T04:04:44.329Z,13
2018-05-23T04:05:46.259Z,13
2018-05-23T04:06:48.249Z,13.1
2018-05-23T04:07:50.235Z,13.1
2018-05-23T04:08:52.244Z,13.1
2018-05-23T04:09:54.509Z,13
2018-05-23T04:10:56.502Z,13
2018-05-23T04:11:58.781Z,13.2
2018-05-23T04:13:00.785Z,13.1
2018-05-23T04:14:03.064Z,13.1
2018-05-23T04:15:05.065Z,13.2
2018-05-23T04:16:07.350Z,13.2
2018-05-23T04:17:09.347Z,13.2
2018-05-23T04:18:11.603Z,13.2
2018-05-23T04:19:13.609Z,13.2
2018-05-23T04:20:15.608Z,13.2
2018-05-23T04:21:17.601Z,13.2
2018-05-23T04:22:19.597Z,13.2
2018-05-23T04:23:21.986Z,13.2
2018-05-23T04:24:23.981Z,13.2
2018-05-23T04:25:25.969Z,13.3
2018-05-23T04:26:27.964Z,13.3
2018-05-23T04:27:29.967Z,13.3
2018-05-23T04:28:32.529Z,13.3
2018-05-23T04:29:34.809Z,13.4
2018-05-23T04:30:37.102Z,13.4
2018-05-23T04:31:39.097Z,13.6
2018-05-23T04:32:41.363Z,13.6
2018-05-23T04:33:43.353Z,13.7
2018-05-23T04:34:45.741Z,13.7
2018-05-23T04:35:47.764Z,13.7
2018-05-23T04:36:49.760Z,13.7
2018-05-23T04:37:51.759Z,13.6
2018-05-23T04:38:54.139Z,13.7
2018-05-23T04:39:56.140Z,13.6
2018-05-23T04:40:58.136Z,13.6
2018-05-23T04:42:00.142Z,13.6
2018-05-23T04:43:02.131Z,13.6
2018-05-23T04:44:04.127Z,13.6
2018-05-23T04:45:06.117Z,13.7
2018-05-23T04:46:08.387Z,13.7
2018-05-23T04:47:10.381Z,13.8
2018-05-23T04:48:12.665Z,13.8
2018-05-23T04:49:14.659Z,13.8
2018-05-23T04:50:16.658Z,13.9
2018-05-23T04:51:18.924Z,13.9
2018-05-23T04:52:20.923Z,13.8
2018-05-23T04:53:22.921Z,13.9
2018-05-23T04:54:24.917Z,13.9
2018-05-23T04:55:27.197Z,13.9
2018-05-23T04:56:29.186Z,13.9
2018-05-23T04:57:31.180Z,13.8
2018-05-23T04:58:33.555Z,13.9
2018-05-23T04:59:35.560Z,13.9
2018-05-23T05:00:37.557Z,13.9
2018-05-23T05:01:39.839Z,13.9
2018-05-23T05:02:41.829Z,13.9
2018-05-23T05:03:44.490Z,13.9
2018-05-23T05:04:46.769Z,13.9
2018-05-23T05:05:48.764Z,14
2018-05-23T05:06:50.758Z,14
2018-05-23T05:07:52.757Z,14.1
2018-05-23T05:08:55.044Z,14.1
2018-05-23T05:09:57.111Z,14.1
2018-05-23T05:10:59.040Z,14.1
2018-05-23T05:12:01.044Z,14
2018-05-23T05:13:03.341Z,14.1
2018-05-23T05:14:05.345Z,14.3
2018-05-23T05:15:07.335Z,14.3
2018-05-23T05:16:09.605Z,14.3
2018-05-23T05:17:11.619Z,14.3
2018-05-23T05:18:13.612Z,14.4
2018-05-23T05:19:15.993Z,14.4
2018-05-23T05:20:17.989Z,14.4
2018-05-23T05:21:19.987Z,14.5
2018-05-23T05:22:21.988Z,14.5
2018-05-23T05:23:23.982Z,14.5
2018-05-23T05:24:26.639Z,14.4
2018-05-23T05:25:28.650Z,14.5
2018-05-23T05:26:30.637Z,14.5
2018-05-23T05:27:32.634Z,14.5
2018-05-23T05:28:34.909Z,14.6
2018-05-23T05:29:36.915Z,14.4
2018-05-23T05:30:38.911Z,14.6
2018-05-23T05:31:40.899Z,14.6
2018-05-23T05:32:42.901Z,14.6
2018-05-23T05:33:44.894Z,14.7
2018-05-23T05:34:46.887Z,14.7
2018-05-23T05:35:48.890Z,14.8
2018-05-23T05:36:51.176Z,14.8
2018-05-23T05:37:53.174Z,14.9
2018-05-23T05:38:55.241Z,15
2018-05-23T05:39:57.147Z,15
2018-05-23T05:40:59.153Z,15.3
2018-05-23T05:42:01.440Z,15.2
2018-05-23T05:43:03.707Z,15.2
2018-05-23T05:44:05.713Z,15.2
2018-05-23T05:45:07.715Z,15.2
2018-05-23T05:46:09.694Z,15.2
2018-05-23T05:47:11.692Z,15.3
2018-05-23T05:48:13.709Z,15.4
2018-05-23T05:49:15.707Z,15.4
2018-05-23T05:50:17.706Z,15.5
2018-05-23T05:51:20.367Z,15.5
2018-05-23T05:52:22.362Z,15.5
2018-05-23T05:53:24.940Z,15.5
2018-05-23T05:54:26.944Z,15.5
2018-05-23T05:55:28.936Z,15.6
2018-05-23T05:56:30.931Z,15.6
2018-05-23T05:57:32.947Z,15.6
2018-05-23T05:58:34.942Z,15.6
2018-05-23T05:59:36.936Z,15.8
2018-05-23T06:00:39.224Z,15.8
2018-05-23T06:01:41.223Z,15.8
2018-05-23T06:02:43.516Z,15.8
2018-05-23T06:03:45.511Z,15.8
2018-05-23T06:04:47.505Z,16
2018-05-23T06:05:50.173Z,16
2018-05-23T06:06:52.160Z,16.1
2018-05-23T06:07:54.743Z,16.1
2018-05-23T06:08:57.128Z,16.1
2018-05-23T06:09:59.616Z,16.1
2018-05-23T06:11:01.549Z,16.2
2018-05-23T06:12:03.548Z,16.2
2018-05-23T06:13:05.938Z,16.3
2018-05-23T06:14:07.939Z,16.3
2018-05-23T06:15:09.932Z,16.4
2018-05-23T06:16:11.929Z,16.4
2018-05-23T06:17:13.915Z,16.5
2018-05-23T06:18:15.920Z,16.5
2018-05-23T06:19:17.909Z,16.7
2018-05-23T06:20:20.473Z,16.8
2018-05-23T06:21:22.481Z,16.9
2018-05-23T06:22:24.559Z,17
2018-05-23T06:23:26.841Z,17
2018-05-23T06:24:28.838Z,17.1
2018-05-23T06:25:30.841Z,17.1
2018-05-23T06:26:32.845Z,17.2
2018-05-23T06:27:35.126Z,17.2
2018-05-23T06:28:37.529Z,17.3
2018-05-23T06:29:39.525Z,17.3
2018-05-23T06:30:41.514Z,17.4
2018-05-23T06:31:43.895Z,17.4
2018-05-23T06:32:45.897Z,17.5
2018-05-23T06:33:47.937Z,17.5
2018-05-23T06:34:49.902Z,17.5
2018-05-23T06:35:51.901Z,17.5
2018-05-23T06:36:53.906Z,17.5
2018-05-23T06:37:56.301Z,17.6
2018-05-23T06:38:58.685Z,17.6
2018-05-23T06:40:01.052Z,17.6
2018-05-23T06:41:03.058Z,17.7
2018-05-23T06:42:05.343Z,17.8
2018-05-23T06:43:07.334Z,17.8
2018-05-23T06:44:09.341Z,17.9
2018-05-23T06:45:11.626Z,17.8
2018-05-23T06:46:13.637Z,17.9
2018-05-23T06:47:15.627Z,18
2018-05-23T06:48:17.621Z,18
2018-05-23T06:49:19.632Z,18.1
2018-05-23T06:50:21.632Z,18.1
2018-05-23T06:51:23.626Z,18.1
2018-05-23T06:52:25.635Z,18.1
2018-05-23T06:53:28.208Z,18.3
2018-05-23T06:54:30.598Z,18.3
2018-05-23T06:55:32.670Z,18.3
2018-05-23T06:56:34.602Z,18.4
2018-05-23T06:57:36.611Z,18.4
2018-05-23T06:58:38.609Z,18.4
2018-05-23T06:59:40.604Z,18.3
2018-05-23T07:00:42.613Z,18.3
2018-05-23T07:01:44.904Z,18.4
2018-05-23T07:02:47.220Z,18.4
2018-05-23T07:03:49.222Z,18.3
2018-05-23T07:04:51.501Z,18.4
2018-05-23T07:05:54.009Z,18.4
2018-05-23T07:06:55.907Z,18.5
2018-05-23T07:07:57.912Z,18.5
2018-05-23T07:08:59.927Z,18.5
2018-05-23T07:10:02.196Z,18.5
2018-05-23T07:11:04.226Z,18.6
2018-05-23T07:12:06.507Z,18.7
2018-05-23T07:13:08.511Z,18.8
2018-05-23T07:14:10.515Z,18.9
2018-05-23T07:15:12.512Z,18.9
2018-05-23T07:16:14.904Z,19
2018-05-23T07:17:16.903Z,19.1
2018-05-23T07:18:18.900Z,19
2018-05-23T07:19:20.914Z,19
2018-05-23T07:20:22.906Z,19.1
2018-05-23T07:21:25.210Z,19.2
2018-05-23T07:22:27.213Z,19.3
2018-05-23T07:23:29.211Z,19.2
2018-05-23T07:24:31.220Z,19.3
2018-05-23T07:25:33.216Z,19.4
2018-05-23T07:26:35.225Z,19.4
2018-05-23T07:27:37.226Z,19.5
2018-05-23T07:28:39.226Z,19.5
2018-05-23T07:29:41.232Z,19.6
2018-05-23T07:30:43.531Z,19.7
2018-05-23T07:31:45.555Z,19.7
2018-05-23T07:32:47.532Z,19.7
2018-05-23T07:33:49.543Z,19.8
2018-05-23T07:34:51.547Z,19.9
2018-05-23T07:35:53.846Z,19.8
2018-05-23T07:36:55.852Z,20
2018-05-23T07:37:57.852Z,20.1
2018-05-23T07:38:59.854Z,20.1
2018-05-23T07:40:01.862Z,20.1
2018-05-23T07:41:04.173Z,20.2
2018-05-23T07:42:06.168Z,20.2
2018-05-23T07:43:08.165Z,20.2
2018-05-23T07:44:10.160Z,20.2
2018-05-23T07:45:12.836Z,20.3
2018-05-23T07:46:14.846Z,20.3
2018-05-23T07:47:16.853Z,20.4
2018-05-23T07:48:18.860Z,20.4
2018-05-23T07:49:20.862Z,20.4
2018-05-23T07:50:22.875Z,20.4
2018-05-23T07:51:24.893Z,20.4
2018-05-23T07:52:27.198Z,20.2
2018-05-23T07:53:29.478Z,20.4
2018-05-23T07:54:31.873Z,20.4
2018-05-23T07:55:33.895Z,20.4
2018-05-23T07:56:36.277Z,20.6
2018-05-23T07:57:39.026Z,20.6
2018-05-23T07:58:41.064Z,20.7
2018-05-23T07:59:43.085Z,20.6
2018-05-23T08:00:45.082Z,20.8
2018-05-23T08:01:47.760Z,20.8
2018-05-23T08:02:49.769Z,20.9
2018-05-23T08:03:52.085Z,21
2018-05-23T08:04:54.582Z,20.8
2018-05-23T08:05:56.589Z,21
2018-05-23T08:06:58.603Z,21
2018-05-23T08:08:00.621Z,21
2018-05-23T08:09:02.897Z,21.1
2018-05-23T08:10:04.911Z,21.1
2018-05-23T08:11:06.922Z,21
2018-05-23T08:12:09.497Z,20.9
2018-05-23T08:13:11.507Z,21.2
2018-05-23T08:14:13.509Z,21.4
2018-05-23T08:15:15.527Z,21.6
2018-05-23T08:16:17.823Z,21.6
2018-05-23T08:17:19.844Z,21.6
2018-05-23T08:18:21.853Z,21.6
2018-05-23T08:19:23.864Z,21.6
2018-05-23T08:20:25.874Z,21.8
2018-05-23T08:21:27.880Z,21.9
2018-05-23T08:22:29.891Z,21.8
2018-05-23T08:23:31.900Z,21.8
2018-05-23T08:24:33.894Z,21.8
2018-05-23T08:25:35.908Z,21.9
2018-05-23T08:26:37.925Z,21.9
2018-05-23T08:27:39.928Z,21.8
2018-05-23T08:28:41.927Z,22.2
2018-05-23T08:29:44.472Z,22.1
2018-05-23T08:30:46.405Z,22.1
2018-05-23T08:31:48.410Z,22
2018-05-23T08:32:50.694Z,22
2018-05-23T08:33:52.992Z,22.1
2018-05-23T08:34:54.995Z,22.4
2018-05-23T08:35:56.999Z,22.6
2018-05-23T08:36:59.009Z,22.7
2018-05-23T08:38:01.013Z,22.7
2018-05-23T08:39:03.408Z,22.8
2018-05-23T08:40:05.408Z,22.8
2018-05-23T08:41:07.413Z,22.8
2018-05-23T08:42:09.425Z,22.7
2018-05-23T08:43:11.435Z,22.7
2018-05-23T08:44:13.727Z,22.6
2018-05-23T08:45:15.743Z,22.8
2018-05-23T08:46:17.745Z,22.9
2018-05-23T08:47:19.756Z,23.1
2018-05-23T08:48:21.756Z,23.4
2018-05-23T08:49:23.763Z,23.6
2018-05-23T08:50:25.770Z,23.6
2018-05-23T08:51:28.048Z,23.7
2018-05-23T08:52:30.350Z,23.3
2018-05-23T08:53:32.360Z,23.5
2018-05-23T08:54:34.372Z,23.7
2018-05-23T08:55:36.380Z,23.2
2018-05-23T08:56:39.084Z,23.2
2018-05-23T08:57:41.495Z,23.5
2018-05-23T08:58:43.782Z,23.6
2018-05-23T08:59:45.789Z,23.7
2018-05-23T09:00:47.798Z,23.7
2018-05-23T09:01:49.801Z,23.6
2018-05-23T09:02:52.206Z,23.6
2018-05-23T09:03:54.218Z,23.5
2018-05-23T09:04:56.255Z,23.7
2018-05-23T09:05:58.240Z,23.6
2018-05-23T09:07:00.257Z,23.9
2018-05-23T09:08:02.540Z,23.8
2018-05-23T09:09:04.541Z,23.6
2018-05-23T09:10:06.547Z,23.5
2018-05-23T09:11:08.558Z,23.6
2018-05-23T09:12:10.917Z,24
2018-05-23T09:13:13.215Z,24.1
2018-05-23T09:14:15.229Z,24.3
2018-05-23T09:15:17.815Z,24.1
2018-05-23T09:16:19.815Z,23.7
2018-05-23T09:17:22.124Z,23.7
2018-05-23T09:18:24.142Z,23.7
2018-05-23T09:19:26.144Z,23.7
2018-05-23T09:20:28.152Z,24.2
2018-05-23T09:21:30.546Z,24.1
2018-05-23T09:22:32.559Z,24.3
2018-05-23T09:23:34.563Z,24.2
2018-05-23T09:24:36.960Z,24.2
2018-05-23T09:25:38.970Z,24.2
2018-05-23T09:26:40.976Z,24.2
2018-05-23T09:27:42.988Z,24.5
2018-05-23T09:28:44.994Z,24.4
2018-05-23T09:29:47.001Z,24.4
2018-05-23T09:30:49.029Z,24.5
2018-05-23T09:31:51.417Z,24.9
2018-05-23T09:32:53.434Z,24.8
2018-05-23T09:33:55.446Z,24.9
2018-05-23T09:34:57.463Z,24.7
2018-05-23T09:35:59.463Z,25.1
2018-05-23T09:37:01.479Z,25.2
2018-05-23T09:38:03.485Z,25.2
2018-05-23T09:39:05.558Z,25.6
2018-05-23T09:40:07.500Z,25.3
2018-05-23T09:41:09.518Z,24.8
2018-05-23T09:42:12.121Z,24.9
2018-05-23T09:43:14.134Z,24.9
2018-05-23T09:44:16.144Z,25.1
2018-05-23T09:45:18.448Z,25.1
2018-05-23T09:46:20.654Z,25
2018-05-23T09:47:22.668Z,25.3
2018-05-23T09:48:25.067Z,25
2018-05-23T09:49:27.092Z,25
2018-05-23T09:50:29.111Z,25.5
2018-05-23T09:51:31.114Z,25.4
2018-05-23T09:52:33.313Z,25.4
2018-05-23T09:53:35.326Z,25.2
2018-05-23T09:54:37.363Z,25
2018-05-23T09:55:39.369Z,24.8
2018-05-23T09:56:41.397Z,25.3
2018-05-23T09:57:43.442Z,25.3
2018-05-23T09:58:45.447Z,25.3
2018-05-23T09:59:47.462Z,25.5
2018-05-23T10:00:49.483Z,25.7
2018-05-23T10:01:51.593Z,25.7
2018-05-23T10:02:53.674Z,25.9
2018-05-23T10:03:56.120Z,25.4
2018-05-23T10:04:58.165Z,25.7
2018-05-23T10:06:00.231Z,25.3
2018-05-23T10:07:02.303Z,25.6
2018-05-23T10:08:05.115Z,25.8
2018-05-23T10:09:07.253Z,25.8
2018-05-23T10:10:10.524Z,25.5
2018-05-23T10:11:12.584Z,25.4
2018-05-23T10:12:14.892Z,25.2
2018-05-23T10:13:18.113Z,24.8
2018-05-23T10:14:20.475Z,25.3
2018-05-23T10:15:23.222Z,25.8
2018-05-23T10:16:25.683Z,25.7
2018-05-23T10:17:27.765Z,25.6
2018-05-23T10:18:30.493Z,26.2
2018-05-23T10:19:33.005Z,25.8
2018-05-23T10:20:35.937Z,25.9
2018-05-23T10:21:38.723Z,26.1
2018-05-23T10:22:40.757Z,26.5
2018-05-23T10:23:42.818Z,26.3
2018-05-23T10:24:45.582Z,26.4
2018-05-23T10:25:48.041Z,26.2
2018-05-23T10:26:50.111Z,26.2
2018-05-23T10:27:52.117Z,26.6
2018-05-23T10:28:54.140Z,26.9
2018-05-23T10:29:56.147Z,26.6
2018-05-23T10:30:58.173Z,26.8
2018-05-23T10:32:00.473Z,26.7
2018-05-23T10:33:02.774Z,26.4
2018-05-23T10:34:04.790Z,26.7
2018-05-23T10:35:06.805Z,26.8
2018-05-23T10:36:08.818Z,26.9
2018-05-23T10:37:10.840Z,27.4
2018-05-23T10:38:12.842Z,27.1
2018-05-23T10:39:14.864Z,27.1
2018-05-23T10:40:16.881Z,27.5
2018-05-23T10:41:18.905Z,26.6
2018-05-23T10:42:20.916Z,26.8
2018-05-23T10:43:22.942Z,26.8
2018-05-23T10:44:24.972Z,26.9
2018-05-23T10:45:27.011Z,26.5
2018-05-23T10:46:29.309Z,26.9
2018-05-23T10:47:31.333Z,26.6
2018-05-23T10:48:33.354Z,26.9
2018-05-23T10:49:35.373Z,26.9
2018-05-23T10:50:37.780Z,26.9
2018-05-23T10:51:39.836Z,26.9
2018-05-23T10:52:41.823Z,27
2018-05-23T10:53:44.114Z,26.8
2018-05-23T10:54:46.132Z,26.9
2018-05-23T10:55:48.164Z,26.7
2018-05-23T10:56:50.191Z,27.1
2018-05-23T10:57:52.198Z,26.8
2018-05-23T10:58:54.217Z,26.4
2018-05-23T10:59:56.231Z,26.4
2018-05-23T11:00:58.256Z,26.8
2018-05-23T11:02:00.891Z,26.8
2018-05-23T11:03:03.329Z,26.8
2018-05-23T11:04:05.351Z,26.7
2018-05-23T11:05:07.374Z,26.7
2018-05-23T11:06:09.381Z,26.9
2018-05-23T11:07:11.400Z,27.3
2018-05-23T11:08:13.421Z,27.6
2018-05-23T11:09:15.447Z,27.3
2018-05-23T11:10:17.456Z,27.1
2018-05-23T11:11:19.778Z,27.1
2018-05-23T11:12:21.794Z,27
2018-05-23T11:13:23.810Z,27.6
2018-05-23T11:14:25.830Z,27.1
2018-05-23T11:15:27.846Z,27.3
2018-05-23T11:16:29.864Z,27.3
2018-05-23T11:17:31.873Z,27
2018-05-23T11:18:34.278Z,28.1
2018-05-23T11:19:37.083Z,27.5
2018-05-23T11:20:39.379Z,27.4
2018-05-23T11:21:41.394Z,27.8
2018-05-23T11:22:43.411Z,27.4
2018-05-23T11:23:45.421Z,27.3
2018-05-23T11:24:47.444Z,27.4
2018-05-23T11:25:49.743Z,27.9
2018-05-23T11:26:51.776Z,27.6
2018-05-23T11:27:53.800Z,27.5
2018-05-23T11:28:55.807Z,27.3
2018-05-23T11:29:57.826Z,27.2
2018-05-23T11:30:59.854Z,27.2
2018-05-23T11:32:01.863Z,27.5
2018-05-23T11:33:03.887Z,27.6
2018-05-23T11:34:05.898Z,27.4
2018-05-23T11:35:08.208Z,27.8
2018-05-23T11:36:10.239Z,27.8
2018-05-23T11:37:12.251Z,27.3
2018-05-23T11:38:14.263Z,27.5
2018-05-23T11:39:16.290Z,28
2018-05-23T11:40:18.586Z,28
2018-05-23T11:41:20.605Z,28
2018-05-23T11:42:22.618Z,28
2018-05-23T11:43:24.842Z,27.8
2018-05-23T11:44:26.863Z,28.1
2018-05-23T11:45:28.868Z,27.1
2018-05-23T11:46:30.975Z,27.3
2018-05-23T11:47:32.915Z,27.1
2018-05-23T11:48:34.945Z,26.9
2018-05-23T11:49:36.964Z,27.6
2018-05-23T11:50:38.996Z,27.7
2018-05-23T11:51:41.018Z,27.6
2018-05-23T11:52:43.043Z,28
2018-05-23T11:53:45.344Z,27.7
2018-05-23T11:54:47.428Z,27.1
2018-05-23T11:55:49.388Z,26.6
2018-05-23T11:56:51.411Z,26
2018-05-23T11:57:53.432Z,26.7
2018-05-23T11:58:55.451Z,26.8
2018-05-23T11:59:57.487Z,27.3
2018-05-23T12:00:59.498Z,27.9
2018-05-23T12:02:01.802Z,27.8
2018-05-23T12:03:03.827Z,27.3
2018-05-23T12:04:06.232Z,27.2
2018-05-23T12:05:08.256Z,27.8
2018-05-23T12:06:10.280Z,27.9
2018-05-23T12:07:12.303Z,27.8
2018-05-23T12:08:14.320Z,28.2
2018-05-23T12:09:16.337Z,28.4
2018-05-23T12:10:18.437Z,28.1
2018-05-23T12:11:20.381Z,27.6
2018-05-23T12:12:22.399Z,28
2018-05-23T12:13:24.419Z,27.7
2018-05-23T12:14:26.435Z,27.6
2018-05-23T12:15:28.736Z,27.5
2018-05-23T12:16:30.766Z,27.5
2018-05-23T12:17:32.786Z,27.8
2018-05-23T12:18:35.091Z,27.3
2018-05-23T12:19:37.201Z,27.8
2018-05-23T12:20:39.516Z,27.7
2018-05-23T12:21:41.529Z,27.9
2018-05-23T12:22:43.548Z,27.5
2018-05-23T12:23:45.577Z,27.3
2018-05-23T12:24:47.597Z,27.6
2018-05-23T12:25:49.907Z,28.3
2018-05-23T12:26:52.205Z,27.7
2018-05-23T12:27:54.237Z,27.9
2018-05-23T12:28:56.637Z,28
2018-05-23T12:29:58.964Z,27.5
2018-05-23T12:31:01.554Z,28
2018-05-23T12:32:03.582Z,27.9
2018-05-23T12:33:05.597Z,28.1
2018-05-23T12:34:07.617Z,27.8
2018-05-23T12:35:09.660Z,28.2
2018-05-23T12:36:11.951Z,28.1
2018-05-23T12:37:13.979Z,28
2018-05-23T12:38:15.997Z,27.8
2018-05-23T12:39:18.296Z,27.5
2018-05-23T12:40:20.307Z,27.8
2018-05-23T12:41:22.326Z,28.3
2018-05-23T12:42:24.356Z,28.4
2018-05-23T12:43:26.371Z,28
2018-05-23T12:44:28.388Z,28
2018-05-23T12:45:30.413Z,27.6
2018-05-23T12:46:32.436Z,28
2018-05-23T12:47:34.457Z,28.2
2018-05-23T12:48:36.469Z,28
2018-05-23T12:49:38.495Z,27.7
2018-05-23T12:50:40.514Z,27.7
2018-05-23T12:51:42.928Z,27.4
2018-05-23T12:52:44.949Z,27.7
2018-05-23T12:53:47.262Z,27.2
2018-05-23T12:54:49.284Z,27.3
2018-05-23T12:55:52.161Z,26.9
2018-05-23T12:56:54.191Z,26.9
2018-05-23T12:57:56.209Z,26.6
2018-05-23T12:58:58.236Z,27.3
2018-05-23T13:00:00.258Z,27
2018-05-23T13:01:02.845Z,27.1
2018-05-23T13:02:04.867Z,27.1
2018-05-23T13:03:06.883Z,26.8
2018-05-23T13:04:08.905Z,26.7
2018-05-23T13:05:10.926Z,26.7
2018-05-23T13:06:12.928Z,27.2
2018-05-23T13:07:14.949Z,27.3
2018-05-23T13:08:17.000Z,27.9
2018-05-23T13:09:19.349Z,27.9
2018-05-23T13:10:21.811Z,27.8
2018-05-23T13:11:24.160Z,27.9
2018-05-23T13:12:26.700Z,27.8
2018-05-23T13:13:28.684Z,27.7
2018-05-23T13:14:30.740Z,27.2
2018-05-23T13:15:32.814Z,27.8
2018-05-23T13:16:34.870Z,27.2
2018-05-23T13:17:36.937Z,27.8
2018-05-23T13:18:39.006Z,28
2018-05-23T13:19:41.671Z,27.8
2018-05-23T13:20:44.022Z,28
2018-05-23T13:21:46.084Z,28.3
2018-05-23T13:22:48.442Z,28.5
2018-05-23T13:23:50.541Z,28.1
2018-05-23T13:24:52.873Z,28.2
2018-05-23T13:25:55.415Z,28.1
2018-05-23T13:27:01.033Z,28.2
2018-05-23T13:28:03.147Z,27.8
2018-05-23T13:29:05.206Z,28.1
2018-05-23T13:30:07.272Z,28.4
2018-05-23T13:31:09.624Z,27.7
2018-05-23T13:32:11.715Z,28.4
2018-05-23T13:33:13.802Z,28.5
2018-05-23T13:34:15.872Z,28.1
2018-05-23T13:35:17.958Z,28
2018-05-23T13:36:20.023Z,28
2018-05-23T13:37:22.124Z,27.4
2018-05-23T13:38:24.174Z,27.2
2018-05-23T13:39:26.586Z,27.7
2018-05-23T13:40:28.793Z,27.9
2018-05-23T13:41:30.851Z,27.7
2018-05-23T13:42:32.940Z,28.3
2018-05-23T13:43:35.006Z,27.9
2018-05-23T13:44:37.066Z,28.4
2018-05-23T13:45:39.155Z,28.6
2018-05-23T13:46:41.208Z,28.3
2018-05-23T13:47:43.319Z,27.8
2018-05-23T13:48:45.608Z,27.6
2018-05-23T13:49:47.735Z,27.8
2018-05-23T13:50:50.733Z,27.8
2018-05-23T13:51:53.113Z,27.6